sensor_id;sensor_type;location;lat;lon;timestamp;pressure;altitude;pressure_sealevel;temperature;humidity
58979;BME280;44763;50.464;30.612;2023-06-04T01:22:42;101091.30;;;8.89;85.23
58979;BME280;44763;50.464;30.612;2023-06-04T01:25:53;101092.66;;;8.90;85.56
58979;BME280;44763;50.464;30.612;2023-06-04T01:28:17;101094.98;;;8.89;85.65
58979;BME280;44763;50.464;30.612;2023-06-04T01:30:49;101093.48;;;8.87;85.76
58979;BME280;44763;50.464;30.612;2023-06-04T01:33:19;101093.77;;;8.89;85.85
58979;BME280;44763;50.464;30.612;2023-06-04T01:35:47;101095.08;;;8.94;85.71
58979;BME280;44763;50.464;30.612;2023-06-04T01:38:15;101097.09;;;8.95;85.84
58979;BME280;44763;50.464;30.612;2023-06-04T01:40:42;101100.20;;;8.94;85.93
58979;BME280;44763;50.464;30.612;2023-06-04T01:43:10;101104.63;;;8.90;86.00
58979;BME280;44763;50.464;30.612;2023-06-04T01:45:37;101103.12;;;8.86;86.15
58979;BME280;44763;50.464;30.612;2023-06-04T01:48:05;101106.34;;;8.82;86.36
58979;BME280;44763;50.464;30.612;2023-06-04T01:50:33;101108.77;;;8.80;86.75
58979;BME280;44763;50.464;30.612;2023-06-04T01:53:00;101107.73;;;8.77;87.02
58979;BME280;44763;50.464;30.612;2023-06-04T01:55:28;101104.80;;;8.79;87.04
58979;BME280;44763;50.464;30.612;2023-06-04T01:58:00;101102.73;;;8.82;87.14
58979;BME280;44763;50.464;30.612;2023-06-04T02:00:28;101107.10;;;8.84;87.23
58979;BME280;44763;50.464;30.612;2023-06-04T02:02:55;101109.04;;;8.86;87.32
58979;BME280;44763;50.464;30.612;2023-06-04T02:05:23;101099.39;;;8.78;87.53
58979;BME280;44763;50.464;30.612;2023-06-04T02:07:51;101099.61;;;8.77;87.77
58979;BME280;44763;50.464;30.612;2023-06-04T02:10:19;101112.11;;;8.85;87.86
58979;BME280;44763;50.464;30.612;2023-06-04T02:13:01;101112.80;;;8.89;88.11
58979;BME280;44763;50.464;30.612;2023-06-04T02:15:33;101116.73;;;8.97;88.22
58979;BME280;44763;50.464;30.612;2023-06-04T02:18:13;101120.59;;;9.11;88.42
58979;BME280;44763;50.464;30.612;2023-06-04T02:20:47;101122.42;;;9.39;88.36
58979;BME280;44763;50.464;30.612;2023-06-04T02:23:17;101119.83;;;9.77;87.30
58979;BME280;44763;50.464;30.612;2023-06-04T02:25:45;101117.21;;;10.22;85.55
58979;BME280;44763;50.464;30.612;2023-06-04T02:28:13;101118.90;;;10.70;83.01
58979;BME280;44763;50.464;30.612;2023-06-04T02:30:41;101115.50;;;11.18;79.97
58979;BME280;44763;50.464;30.612;2023-06-04T02:33:08;101116.11;;;11.61;77.40
58979;BME280;44763;50.464;30.612;2023-06-04T02:35:37;101121.67;;;12.08;74.94
58979;BME280;44763;50.464;30.612;2023-06-04T02:38:05;101118.59;;;12.51;72.76
58979;BME280;44763;50.464;30.612;2023-06-04T02:40:32;101114.19;;;12.95;70.50
58979;BME280;44763;50.464;30.612;2023-06-04T02:43:00;101111.69;;;13.34;68.52
58979;BME280;44763;50.464;30.612;2023-06-04T02:45:27;101115.34;;;13.71;66.80
58979;BME280;44763;50.464;30.612;2023-06-04T02:47:56;101114.52;;;14.02;65.05
58979;BME280;44763;50.464;30.612;2023-06-04T02:50:24;101114.37;;;14.36;63.40
58979;BME280;44763;50.464;30.612;2023-06-04T02:52:51;101116.95;;;14.78;62.00
58979;BME280;44763;50.464;30.612;2023-06-04T02:55:19;101115.73;;;15.22;60.33
58979;BME280;44763;50.464;30.612;2023-06-04T02:57:46;101119.31;;;15.67;58.39
58979;BME280;44763;50.464;30.612;2023-06-04T03:00:14;101120.14;;;16.18;57.00
58979;BME280;44763;50.464;30.612;2023-06-04T03:02:44;101120.46;;;16.65;55.22
58979;BME280;44763;50.464;30.612;2023-06-04T03:05:16;101123.04;;;17.06;53.91
58979;BME280;44763;50.464;30.612;2023-06-04T03:07:46;101123.90;;;17.42;52.85
58979;BME280;44763;50.464;30.612;2023-06-04T03:10:14;101126.62;;;17.78;51.25
58979;BME280;44763;50.464;30.612;2023-06-04T03:12:42;101130.08;;;18.16;49.97
58979;BME280;44763;50.464;30.612;2023-06-04T03:15:10;101133.69;;;18.51;48.49
58979;BME280;44763;50.464;30.612;2023-06-04T03:17:37;101133.36;;;18.87;47.14
58979;BME280;44763;50.464;30.612;2023-06-04T03:20:06;101134.38;;;19.23;46.27
58979;BME280;44763;50.464;30.612;2023-06-04T03:22:34;101136.90;;;19.60;45.60
58979;BME280;44763;50.464;30.612;2023-06-04T03:25:04;101140.50;;;19.88;45.31
58979;BME280;44763;50.464;30.612;2023-06-04T03:27:33;101138.65;;;20.11;44.44
58979;BME280;44763;50.464;30.612;2023-06-04T03:30:01;101140.67;;;20.33;43.92
58979;BME280;44763;50.464;30.612;2023-06-04T03:32:38;101138.91;;;20.59;43.06
58979;BME280;44763;50.464;30.612;2023-06-04T03:35:06;101143.84;;;20.87;42.40
58979;BME280;44763;50.464;30.612;2023-06-04T03:37:33;101142.67;;;21.22;41.48
58979;BME280;44763;50.464;30.612;2023-06-04T03:40:01;101143.68;;;21.50;41.00
58979;BME280;44763;50.464;30.612;2023-06-04T03:42:35;101140.03;;;21.74;40.47
58979;BME280;44763;50.464;30.612;2023-06-04T03:45:03;101140.55;;;21.97;39.81
58979;BME280;44763;50.464;30.612;2023-06-04T03:47:31;101137.20;;;22.23;38.83
58979;BME280;44763;50.464;30.612;2023-06-04T03:49:59;101137.61;;;22.51;37.69
58979;BME280;44763;50.464;30.612;2023-06-04T03:52:26;101133.16;;;22.79;37.33
58979;BME280;44763;50.464;30.612;2023-06-04T03:54:55;101130.06;;;23.03;36.24
58979;BME280;44763;50.464;30.612;2023-06-04T03:57:22;101125.52;;;23.26;34.91
58979;BME280;44763;50.464;30.612;2023-06-04T03:59:50;101127.58;;;23.48;33.62
58979;BME280;44763;50.464;30.612;2023-06-04T04:02:18;101127.16;;;23.70;32.53
58979;BME280;44763;50.464;30.612;2023-06-04T04:04:47;101126.08;;;23.92;30.59
58979;BME280;44763;50.464;30.612;2023-06-04T04:07:15;101128.50;;;24.07;30.40
58979;BME280;44763;50.464;30.612;2023-06-04T04:09:43;101128.16;;;24.12;29.55
58979;BME280;44763;50.464;30.612;2023-06-04T04:12:11;101129.85;;;23.93;28.13
58979;BME280;44763;50.464;30.612;2023-06-04T04:14:39;101134.55;;;23.79;27.90
58979;BME280;44763;50.464;30.612;2023-06-04T04:17:07;101136.72;;;23.87;28.99
58979;BME280;44763;50.464;30.612;2023-06-04T04:19:35;101144.60;;;23.97;28.52
58979;BME280;44763;50.464;30.612;2023-06-04T04:22:03;101144.70;;;24.15;28.55
58979;BME280;44763;50.464;30.612;2023-06-04T04:24:31;101145.83;;;24.33;27.86
58979;BME280;44763;50.464;30.612;2023-06-04T04:27:02;101147.27;;;24.52;26.98
58979;BME280;44763;50.464;30.612;2023-06-04T04:29:31;101150.10;;;24.64;26.41
58979;BME280;44763;50.464;30.612;2023-06-04T04:32:02;101148.09;;;24.44;27.32
58979;BME280;44763;50.464;30.612;2023-06-04T04:34:52;101135.10;;;24.02;27.69
58979;BME280;44763;50.464;30.612;2023-06-04T04:37:24;101152.38;;;23.61;27.34
58979;BME280;44763;50.464;30.612;2023-06-04T04:39:53;101159.67;;;23.09;28.10
58979;BME280;44763;50.464;30.612;2023-06-04T04:42:21;101152.19;;;22.91;29.44
58979;BME280;44763;50.464;30.612;2023-06-04T04:44:49;101158.98;;;22.76;29.90
58979;BME280;44763;50.464;30.612;2023-06-04T04:47:18;101157.20;;;22.40;30.46
58979;BME280;44763;50.464;30.612;2023-06-04T04:49:46;101158.14;;;22.23;30.95
58979;BME280;44763;50.464;30.612;2023-06-04T04:52:16;101158.56;;;22.33;30.80
58979;BME280;44763;50.464;30.612;2023-06-04T04:54:44;101157.37;;;22.40;29.08
58979;BME280;44763;50.464;30.612;2023-06-04T04:57:11;101160.94;;;22.15;31.90
58979;BME280;44763;50.464;30.612;2023-06-04T04:59:43;101157.11;;;21.91;31.70
58979;BME280;44763;50.464;30.612;2023-06-04T05:02:10;101159.77;;;21.94;31.09
58979;BME280;44763;50.464;30.612;2023-06-04T05:04:38;101156.85;;;21.98;31.25
58979;BME280;44763;50.464;30.612;2023-06-04T05:07:05;101149.39;;;22.00;30.41
58979;BME280;44763;50.464;30.612;2023-06-04T05:09:32;101151.21;;;22.24;29.71
58979;BME280;44763;50.464;30.612;2023-06-04T05:12:00;101159.20;;;22.46;29.62
58979;BME280;44763;50.464;30.612;2023-06-04T05:14:29;101161.13;;;22.65;28.85
58979;BME280;44763;50.464;30.612;2023-06-04T05:16:57;101159.64;;;22.80;28.86
58979;BME280;44763;50.464;30.612;2023-06-04T05:19:25;101161.61;;;22.87;28.62
58979;BME280;44763;50.464;30.612;2023-06-04T05:21:52;101161.90;;;22.81;28.32
58979;BME280;44763;50.464;30.612;2023-06-04T05:24:21;101166.17;;;22.77;27.96
58979;BME280;44763;50.464;30.612;2023-06-04T05:26:48;101164.84;;;22.74;27.36
58979;BME280;44763;50.464;30.612;2023-06-04T05:29:18;101165.51;;;22.68;27.32
58979;BME280;44763;50.464;30.612;2023-06-04T05:31:46;101161.76;;;22.64;27.31
58979;BME280;44763;50.464;30.612;2023-06-04T05:34:14;101167.48;;;22.73;27.03
58979;BME280;44763;50.464;30.612;2023-06-04T05:36:43;101163.74;;;22.89;26.43
58979;BME280;44763;50.464;30.612;2023-06-04T05:39:11;101166.52;;;22.69;26.31
58979;BME280;44763;50.464;30.612;2023-06-04T05:42:11;101161.23;;;22.34;27.08
58979;BME280;44763;50.464;30.612;2023-06-04T05:44:39;101162.70;;;22.23;27.62
58979;BME280;44763;50.464;30.612;2023-06-04T05:47:07;101159.80;;;22.26;27.30
58979;BME280;44763;50.464;30.612;2023-06-04T05:49:35;101163.86;;;22.21;27.38
58979;BME280;44763;50.464;30.612;2023-06-04T05:52:03;101168.45;;;22.15;27.88
58979;BME280;44763;50.464;30.612;2023-06-04T05:54:30;101165.39;;;22.15;27.85
58979;BME280;44763;50.464;30.612;2023-06-04T05:56:58;101163.67;;;22.16;28.25
58979;BME280;44763;50.464;30.612;2023-06-04T05:59:26;101161.49;;;22.31;28.28
58979;BME280;44763;50.464;30.612;2023-06-04T06:01:53;101163.44;;;22.60;27.84
58979;BME280;44763;50.464;30.612;2023-06-04T06:04:21;101146.98;;;22.51;25.90
58979;BME280;44763;50.464;30.612;2023-06-04T06:06:49;101162.63;;;22.43;25.52
58979;BME280;44763;50.464;30.612;2023-06-04T06:09:16;101162.80;;;22.40;25.81
58979;BME280;44763;50.464;30.612;2023-06-04T06:11:44;101162.81;;;22.44;25.84
58979;BME280;44763;50.464;30.612;2023-06-04T06:14:11;101169.25;;;22.52;25.65
58979;BME280;44763;50.464;30.612;2023-06-04T06:16:39;101169.39;;;22.63;24.95
58979;BME280;44763;50.464;30.612;2023-06-04T06:19:07;101168.92;;;22.67;24.53
58979;BME280;44763;50.464;30.612;2023-06-04T06:21:35;101164.05;;;22.69;24.74
58979;BME280;44763;50.464;30.612;2023-06-04T06:24:03;101164.73;;;22.81;24.67
58979;BME280;44763;50.464;30.612;2023-06-04T06:26:31;101158.98;;;22.95;23.94
58979;BME280;44763;50.464;30.612;2023-06-04T06:29:00;101157.85;;;22.96;24.41
58979;BME280;44763;50.464;30.612;2023-06-04T06:31:28;101161.13;;;23.00;24.60
58979;BME280;44763;50.464;30.612;2023-06-04T06:33:56;101165.46;;;23.05;24.88
58979;BME280;44763;50.464;30.612;2023-06-04T06:36:23;101163.59;;;23.12;24.03
58979;BME280;44763;50.464;30.612;2023-06-04T06:38:50;101164.60;;;23.10;23.79
58979;BME280;44763;50.464;30.612;2023-06-04T06:41:19;101162.94;;;23.00;24.43
58979;BME280;44763;50.464;30.612;2023-06-04T06:43:47;101168.63;;;22.76;23.45
58979;BME280;44763;50.464;30.612;2023-06-04T06:46:14;101166.92;;;22.50;23.49
58979;BME280;44763;50.464;30.612;2023-06-04T06:48:42;101165.53;;;22.23;24.13
58979;BME280;44763;50.464;30.612;2023-06-04T06:51:12;101164.50;;;22.07;24.75
58979;BME280;44763;50.464;30.612;2023-06-04T06:53:40;101160.67;;;22.18;24.99
58979;BME280;44763;50.464;30.612;2023-06-04T06:56:07;101160.27;;;22.23;25.50
58979;BME280;44763;50.464;30.612;2023-06-04T06:58:35;101156.49;;;22.25;25.08
58979;BME280;44763;50.464;30.612;2023-06-04T07:01:05;101154.42;;;22.09;25.21
58979;BME280;44763;50.464;30.612;2023-06-04T07:03:33;101158.11;;;21.75;26.21
58979;BME280;44763;50.464;30.612;2023-06-04T07:06:02;101159.82;;;21.59;26.48
58979;BME280;44763;50.464;30.612;2023-06-04T07:08:30;101159.44;;;21.59;26.46
58979;BME280;44763;50.464;30.612;2023-06-04T07:10:58;101156.61;;;21.70;26.60
58979;BME280;44763;50.464;30.612;2023-06-04T07:13:29;101156.71;;;21.93;26.16
58979;BME280;44763;50.464;30.612;2023-06-04T07:15:59;101157.48;;;22.24;26.02
58979;BME280;44763;50.464;30.612;2023-06-04T07:18:27;101159.89;;;22.55;25.94
58979;BME280;44763;50.464;30.612;2023-06-04T07:20:54;101164.09;;;22.71;25.43
58979;BME280;44763;50.464;30.612;2023-06-04T07:23:24;101168.55;;;22.71;24.64
58979;BME280;44763;50.464;30.612;2023-06-04T07:25:52;101171.33;;;22.61;24.35
58979;BME280;44763;50.464;30.612;2023-06-04T07:28:19;101170.86;;;22.38;24.57
58979;BME280;44763;50.464;30.612;2023-06-04T07:30:46;101165.89;;;22.12;24.71
58979;BME280;44763;50.464;30.612;2023-06-04T07:33:14;101162.71;;;21.86;25.19
58979;BME280;44763;50.464;30.612;2023-06-04T07:35:41;101168.08;;;21.69;26.08
58979;BME280;44763;50.464;30.612;2023-06-04T07:38:09;101169.05;;;21.46;25.82
58979;BME280;44763;50.464;30.612;2023-06-04T07:40:36;101167.48;;;20.88;26.18
58979;BME280;44763;50.464;30.612;2023-06-04T07:43:03;101166.20;;;20.41;26.88
58979;BME280;44763;50.464;30.612;2023-06-04T07:45:31;101167.25;;;20.16;27.05
58979;BME280;44763;50.464;30.612;2023-06-04T07:48:02;101174.20;;;19.89;27.38
58979;BME280;44763;50.464;30.612;2023-06-04T07:50:30;101170.27;;;19.71;27.95
58979;BME280;44763;50.464;30.612;2023-06-04T07:53:01;101172.75;;;19.51;28.38
58979;BME280;44763;50.464;30.612;2023-06-04T07:55:29;101174.57;;;19.39;28.51
58979;BME280;44763;50.464;30.612;2023-06-04T07:57:56;101171.10;;;19.33;28.48
58979;BME280;44763;50.464;30.612;2023-06-04T08:00:24;101169.14;;;19.27;28.36
58979;BME280;44763;50.464;30.612;2023-06-04T08:02:54;101167.65;;;19.22;28.22
58979;BME280;44763;50.464;30.612;2023-06-04T08:05:22;101168.75;;;19.17;28.03
58979;BME280;44763;50.464;30.612;2023-06-04T08:07:50;101171.24;;;19.10;28.41
58979;BME280;44763;50.464;30.612;2023-06-04T08:10:17;101169.40;;;19.07;28.52
58979;BME280;44763;50.464;30.612;2023-06-04T08:12:45;101166.84;;;18.98;28.59
58979;BME280;44763;50.464;30.612;2023-06-04T08:15:12;101167.02;;;18.88;29.46
58979;BME280;44763;50.464;30.612;2023-06-04T08:17:40;101168.04;;;18.90;29.45
58979;BME280;44763;50.464;30.612;2023-06-04T08:20:07;101165.38;;;18.95;29.28
58979;BME280;44763;50.464;30.612;2023-06-04T08:22:38;101163.64;;;18.98;29.23
58979;BME280;44763;50.464;30.612;2023-06-04T08:25:06;101166.97;;;19.05;29.09
58979;BME280;44763;50.464;30.612;2023-06-04T08:27:34;101163.88;;;19.07;28.93
58979;BME280;44763;50.464;30.612;2023-06-04T08:30:02;101159.22;;;19.06;28.86
58979;BME280;44763;50.464;30.612;2023-06-04T08:32:29;101161.81;;;19.04;29.14
58979;BME280;44763;50.464;30.612;2023-06-04T08:34:57;101163.46;;;19.05;28.93
58979;BME280;44763;50.464;30.612;2023-06-04T08:37:25;101162.34;;;19.05;28.17
58979;BME280;44763;50.464;30.612;2023-06-04T08:39:52;101160.89;;;19.02;28.06
58979;BME280;44763;50.464;30.612;2023-06-04T08:42:29;101156.11;;;19.01;28.35
58979;BME280;44763;50.464;30.612;2023-06-04T08:44:58;101157.69;;;18.98;28.34
58979;BME280;44763;50.464;30.612;2023-06-04T08:47:25;101155.26;;;18.93;28.38
58979;BME280;44763;50.464;30.612;2023-06-04T08:49:55;101154.77;;;18.89;28.64
58979;BME280;44763;50.464;30.612;2023-06-04T08:52:27;101153.18;;;18.84;29.02
58979;BME280;44763;50.464;30.612;2023-06-04T08:54:55;101155.20;;;18.85;28.78
58979;BME280;44763;50.464;30.612;2023-06-04T08:57:23;101154.70;;;18.90;28.76
58979;BME280;44763;50.464;30.612;2023-06-04T08:59:51;101151.38;;;18.98;28.66
58979;BME280;44763;50.464;30.612;2023-06-04T09:02:18;101148.93;;;19.05;28.94
58979;BME280;44763;50.464;30.612;2023-06-04T09:04:46;101150.07;;;19.00;28.91
58979;BME280;44763;50.464;30.612;2023-06-04T09:07:14;101146.84;;;18.91;29.21
58979;BME280;44763;50.464;30.612;2023-06-04T09:09:44;101128.34;;;18.83;29.84
58979;BME280;44763;50.464;30.612;2023-06-04T09:12:24;101137.39;;;18.96;30.05
58979;BME280;44763;50.464;30.612;2023-06-04T09:14:52;101141.53;;;19.01;29.75
58979;BME280;44763;50.464;30.612;2023-06-04T09:17:23;101134.20;;;18.99;29.26
58979;BME280;44763;50.464;30.612;2023-06-04T09:19:51;101134.61;;;18.92;29.46
58979;BME280;44763;50.464;30.612;2023-06-04T09:22:18;101126.98;;;18.90;29.73
58979;BME280;44763;50.464;30.612;2023-06-04T09:24:47;101120.06;;;18.84;29.64
58979;BME280;44763;50.464;30.612;2023-06-04T09:27:19;101130.30;;;18.91;29.63
58979;BME280;44763;50.464;30.612;2023-06-04T09:29:51;101125.20;;;18.86;30.10
58979;BME280;44763;50.464;30.612;2023-06-04T09:32:28;101121.98;;;18.87;30.13
58979;BME280;44763;50.464;30.612;2023-06-04T09:35:11;101125.90;;;18.94;29.72
58979;BME280;44763;50.464;30.612;2023-06-04T09:37:40;101124.89;;;18.95;29.32
58979;BME280;44763;50.464;30.612;2023-06-04T09:40:09;101121.15;;;18.92;29.63
58979;BME280;44763;50.464;30.612;2023-06-04T09:42:44;101123.55;;;18.96;29.47
58979;BME280;44763;50.464;30.612;2023-06-04T09:45:12;101120.46;;;19.00;29.04
58979;BME280;44763;50.464;30.612;2023-06-04T09:47:43;101117.48;;;18.99;29.21
58979;BME280;44763;50.464;30.612;2023-06-04T09:50:11;101117.58;;;18.99;29.13
58979;BME280;44763;50.464;30.612;2023-06-04T09:52:39;101110.76;;;18.96;29.25
58979;BME280;44763;50.464;30.612;2023-06-04T09:55:18;101111.65;;;18.94;29.40
58979;BME280;44763;50.464;30.612;2023-06-04T09:57:47;101113.66;;;18.92;29.10
58979;BME280;44763;50.464;30.612;2023-06-04T10:00:19;101109.45;;;18.93;28.93
58979;BME280;44763;50.464;30.612;2023-06-04T10:02:49;101105.88;;;18.96;28.90
58979;BME280;44763;50.464;30.612;2023-06-04T10:05:17;101101.96;;;19.02;28.94
58979;BME280;44763;50.464;30.612;2023-06-04T10:07:51;101091.44;;;19.09;28.84
58979;BME280;44763;50.464;30.612;2023-06-04T10:10:21;101091.23;;;19.19;28.35
58979;BME280;44763;50.464;30.612;2023-06-04T10:12:59;101088.73;;;19.26;28.09
58979;BME280;44763;50.464;30.612;2023-06-04T10:15:28;101088.52;;;19.30;27.92
58979;BME280;44763;50.464;30.612;2023-06-04T10:17:56;101084.09;;;19.31;27.05
58979;BME280;44763;50.464;30.612;2023-06-04T10:20:24;101086.77;;;19.27;27.19
58979;BME280;44763;50.464;30.612;2023-06-04T10:22:51;101089.60;;;19.24;26.32
58979;BME280;44763;50.464;30.612;2023-06-04T10:25:19;101090.21;;;19.21;26.41
58979;BME280;44763;50.464;30.612;2023-06-04T10:27:47;101087.77;;;19.19;26.54
58979;BME280;44763;50.464;30.612;2023-06-04T10:30:17;101082.77;;;19.14;26.79
58979;BME280;44763;50.464;30.612;2023-06-04T10:32:45;101081.38;;;19.12;26.99
58979;BME280;44763;50.464;30.612;2023-06-04T10:35:14;101083.69;;;19.17;27.11
58979;BME280;44763;50.464;30.612;2023-06-04T10:37:42;101076.15;;;19.22;27.24
58979;BME280;44763;50.464;30.612;2023-06-04T10:40:10;101077.90;;;19.27;27.57
58979;BME280;44763;50.464;30.612;2023-06-04T10:42:42;101078.83;;;19.30;27.26
58979;BME280;44763;50.464;30.612;2023-06-04T10:45:10;101074.55;;;19.30;27.40
58979;BME280;44763;50.464;30.612;2023-06-04T10:47:37;101072.73;;;19.32;27.51
58979;BME280;44763;50.464;30.612;2023-06-04T10:50:10;101071.12;;;19.34;27.05
58979;BME280;44763;50.464;30.612;2023-06-04T10:52:50;101070.05;;;19.39;26.78
58979;BME280;44763;50.464;30.612;2023-06-04T10:55:18;101063.77;;;19.42;27.00
58979;BME280;44763;50.464;30.612;2023-06-04T10:57:55;101063.02;;;19.40;26.23
58979;BME280;44763;50.464;30.612;2023-06-04T11:00:44;101064.00;;;19.35;26.44
58979;BME280;44763;50.464;30.612;2023-06-04T11:03:16;101055.46;;;19.33;26.75
58979;BME280;44763;50.464;30.612;2023-06-04T11:05:47;101048.98;;;19.38;26.75
58979;BME280;44763;50.464;30.612;2023-06-04T11:08:26;101044.43;;;19.45;27.05
58979;BME280;44763;50.464;30.612;2023-06-04T11:10:57;101042.80;;;19.57;27.16
58979;BME280;44763;50.464;30.612;2023-06-04T11:13:25;101041.29;;;19.70;26.84
58979;BME280;44763;50.464;30.612;2023-06-04T11:15:55;101035.27;;;19.77;26.53
58979;BME280;44763;50.464;30.612;2023-06-04T11:18:23;101031.61;;;19.78;26.33
58979;BME280;44763;50.464;30.612;2023-06-04T11:21:00;101020.13;;;19.73;26.55
58979;BME280;44763;50.464;30.612;2023-06-04T11:23:33;101014.05;;;19.72;26.08
58979;BME280;44763;50.464;30.612;2023-06-04T11:26:00;101027.98;;;19.73;26.20
58979;BME280;44763;50.464;30.612;2023-06-04T11:28:28;101026.86;;;19.71;26.29
58979;BME280;44763;50.464;30.612;2023-06-04T11:31:07;101025.42;;;19.73;26.26
58979;BME280;44763;50.464;30.612;2023-06-04T11:33:44;101013.88;;;19.70;26.29
58979;BME280;44763;50.464;30.612;2023-06-04T11:36:27;101022.78;;;19.72;26.23
58979;BME280;44763;50.464;30.612;2023-06-04T11:38:56;101017.50;;;19.65;26.54
58979;BME280;44763;50.464;30.612;2023-06-04T11:41:29;101019.02;;;19.68;27.10
58979;BME280;44763;50.464;30.612;2023-06-04T11:44:00;101019.67;;;19.74;26.48
58979;BME280;44763;50.464;30.612;2023-06-04T11:46:28;101016.32;;;19.74;26.54
58979;BME280;44763;50.464;30.612;2023-06-04T11:48:56;101021.80;;;19.71;26.88
58979;BME280;44763;50.464;30.612;2023-06-04T11:51:23;101023.79;;;19.72;26.65
58979;BME280;44763;50.464;30.612;2023-06-04T11:53:51;101027.29;;;19.71;26.60
58979;BME280;44763;50.464;30.612;2023-06-04T11:56:19;101024.29;;;19.70;26.52
58979;BME280;44763;50.464;30.612;2023-06-04T11:58:46;101023.10;;;19.73;26.54
58979;BME280;44763;50.464;30.612;2023-06-04T12:01:14;101022.57;;;19.76;26.36
58979;BME280;44763;50.464;30.612;2023-06-04T12:03:42;101023.46;;;19.71;26.10
58979;BME280;44763;50.464;30.612;2023-06-04T12:06:16;101024.63;;;19.62;26.22
58979;BME280;44763;50.464;30.612;2023-06-04T12:08:52;101020.76;;;19.59;26.36
58979;BME280;44763;50.464;30.612;2023-06-04T12:11:31;101017.91;;;19.57;26.48
58979;BME280;44763;50.464;30.612;2023-06-04T12:14:04;101017.47;;;19.54;26.48
58979;BME280;44763;50.464;30.612;2023-06-04T12:16:33;101013.33;;;19.53;26.55
58979;BME280;44763;50.464;30.612;2023-06-04T12:19:07;101014.05;;;19.54;26.52
58979;BME280;44763;50.464;30.612;2023-06-04T12:21:35;101018.59;;;19.54;26.58
58979;BME280;44763;50.464;30.612;2023-06-04T12:24:07;101014.88;;;19.52;26.48
58979;BME280;44763;50.464;30.612;2023-06-04T12:26:35;101010.19;;;19.49;26.61
58979;BME280;44763;50.464;30.612;2023-06-04T12:29:14;101007.41;;;19.48;26.72
58979;BME280;44763;50.464;30.612;2023-06-04T12:31:44;101000.48;;;19.52;26.87
58979;BME280;44763;50.464;30.612;2023-06-04T12:34:15;101003.02;;;19.58;27.08
58979;BME280;44763;50.464;30.612;2023-06-04T12:36:44;100996.05;;;19.67;27.42
58979;BME280;44763;50.464;30.612;2023-06-04T12:39:12;100994.80;;;19.77;27.40
58979;BME280;44763;50.464;30.612;2023-06-04T12:41:45;100995.56;;;19.84;27.24
58979;BME280;44763;50.464;30.612;2023-06-04T12:44:12;100990.86;;;19.86;27.31
58979;BME280;44763;50.464;30.612;2023-06-04T12:46:39;100989.89;;;19.91;27.67
58979;BME280;44763;50.464;30.612;2023-06-04T12:49:07;100989.88;;;19.97;27.51
58979;BME280;44763;50.464;30.612;2023-06-04T12:51:34;100988.58;;;20.02;27.02
58979;BME280;44763;50.464;30.612;2023-06-04T12:54:02;100986.64;;;20.05;26.50
58979;BME280;44763;50.464;30.612;2023-06-04T12:56:29;100987.46;;;20.02;26.50
58979;BME280;44763;50.464;30.612;2023-06-04T12:58:57;100988.70;;;20.02;26.80
58979;BME280;44763;50.464;30.612;2023-06-04T13:01:24;100991.08;;;20.02;26.58
58979;BME280;44763;50.464;30.612;2023-06-04T13:03:54;100986.17;;;19.97;26.62
58979;BME280;44763;50.464;30.612;2023-06-04T13:06:23;100991.96;;;19.90;26.41
58979;BME280;44763;50.464;30.612;2023-06-04T13:08:50;100988.88;;;19.83;26.43
58979;BME280;44763;50.464;30.612;2023-06-04T13:11:18;100977.81;;;19.72;26.54
58979;BME280;44763;50.464;30.612;2023-06-04T13:13:45;100986.78;;;19.81;26.61
58979;BME280;44763;50.464;30.612;2023-06-04T13:16:12;100984.62;;;19.81;26.14
58979;BME280;44763;50.464;30.612;2023-06-04T13:18:40;100987.54;;;19.76;26.68
58979;BME280;44763;50.464;30.612;2023-06-04T13:21:07;100986.21;;;19.72;26.73
58979;BME280;44763;50.464;30.612;2023-06-04T13:23:35;100981.80;;;19.66;26.54
58979;BME280;44763;50.464;30.612;2023-06-04T13:26:17;100978.23;;;19.62;26.69
58979;BME280;44763;50.464;30.612;2023-06-04T13:28:46;100974.50;;;19.62;26.60
58979;BME280;44763;50.464;30.612;2023-06-04T13:31:14;100972.61;;;19.66;26.92
58979;BME280;44763;50.464;30.612;2023-06-04T13:35:48;100965.05;;;19.79;26.94
58979;BME280;44763;50.464;30.612;2023-06-04T13:38:17;100965.39;;;19.82;27.04
58979;BME280;44763;50.464;30.612;2023-06-04T13:40:45;100968.06;;;19.86;27.04
58979;BME280;44763;50.464;30.612;2023-06-04T13:43:13;100963.69;;;19.88;27.53
58979;BME280;44763;50.464;30.612;2023-06-04T13:45:40;100964.66;;;19.92;27.96
58979;BME280;44763;50.464;30.612;2023-06-04T13:48:07;100963.98;;;19.96;27.85
58979;BME280;44763;50.464;30.612;2023-06-04T13:50:35;100959.66;;;19.97;27.51
58979;BME280;44763;50.464;30.612;2023-06-04T13:53:03;100957.55;;;19.99;27.25
58979;BME280;44763;50.464;30.612;2023-06-04T13:55:30;100956.48;;;19.97;27.15
58979;BME280;44763;50.464;30.612;2023-06-04T13:57:58;100952.39;;;19.96;26.82
58979;BME280;44763;50.464;30.612;2023-06-04T14:00:25;100946.12;;;19.93;26.66
58979;BME280;44763;50.464;30.612;2023-06-04T14:02:53;100946.81;;;19.94;26.92
58979;BME280;44763;50.464;30.612;2023-06-04T14:05:24;100947.06;;;19.97;26.97
58979;BME280;44763;50.464;30.612;2023-06-04T14:07:52;100945.63;;;20.01;26.86
58979;BME280;44763;50.464;30.612;2023-06-04T14:10:21;100942.09;;;20.07;27.11
58979;BME280;44763;50.464;30.612;2023-06-04T14:12:49;100939.42;;;20.14;27.21
58979;BME280;44763;50.464;30.612;2023-06-04T14:15:16;100939.93;;;20.20;27.73